createdAt,value
2023-01-12T00:01:51.774Z,3.97
2023-01-12T00:04:18.778Z,2.03
2023-01-12T00:06:45.676Z,4.72
2023-01-12T00:09:12.791Z,1.30
2023-01-12T00:11:40.333Z,2.88
2023-01-12T00:14:08.725Z,3.15
2023-01-12T00:16:37.703Z,1.40
2023-01-12T00:19:18.666Z,2.35
2023-01-12T00:22:04.336Z,0.65
2023-01-12T00:24:39.270Z,0.80
2023-01-12T00:27:09.877Z,2.28
2023-01-12T00:29:37.158Z,2.70
2023-01-12T00:32:05.728Z,2.42
2023-01-12T00:34:32.426Z,1.30
2023-01-12T00:37:01.474Z,2.08
2023-01-12T00:39:28.111Z,2.95
2023-01-12T00:42:13.474Z,2.25
2023-01-12T00:44:58.986Z,2.33
2023-01-12T00:47:25.675Z,2.15
2023-01-12T00:49:53.149Z,2.15
2023-01-12T00:52:30.469Z,2.45
2023-01-12T00:54:59.206Z,7.00
2023-01-12T00:57:26.530Z,3.30
2023-01-12T00:59:57.979Z,2.17
2023-01-12T01:02:24.985Z,1.70
2023-01-12T01:04:51.810Z,3.20
2023-01-12T01:07:21.484Z,2.25
2023-01-12T01:09:48.513Z,6.95
2023-01-12T01:12:15.240Z,3.85
2023-01-12T01:14:41.914Z,5.97
2023-01-12T01:17:08.722Z,5.15
2023-01-12T01:19:36.808Z,13.32
2023-01-12T01:22:03.791Z,2.03
2023-01-12T01:24:30.473Z,1.77
2023-01-12T01:26:57.254Z,4.22
2023-01-12T01:29:23.891Z,3.03
2023-01-12T01:31:50.597Z,2.97
2023-01-12T01:34:17.932Z,1.60
2023-01-12T01:36:44.602Z,1.40
2023-01-12T01:39:11.299Z,2.55
2023-01-12T01:41:37.953Z,3.65
2023-01-12T01:44:49.718Z,2.78
2023-01-12T01:47:28.332Z,4.75
2023-01-12T01:49:57.628Z,1.45
2023-01-12T01:52:30.112Z,2.45
2023-01-12T01:55:03.140Z,4.40
2023-01-12T01:57:48.658Z,4.03
2023-01-12T02:00:15.998Z,3.00
2023-01-12T02:02:46.128Z,6.43
2023-01-12T02:05:18.713Z,2.60
2023-01-12T02:10:12.127Z,4.40
2023-01-12T02:12:57.876Z,4.20
2023-01-12T02:15:47.194Z,2.20
2023-01-12T02:18:32.663Z,8.27
2023-01-12T02:21:27.854Z,3.33
2023-01-12T02:24:17.342Z,3.78
2023-01-12T02:27:15.088Z,7.22
2023-01-12T02:30:29.232Z,1.77
2023-01-12T02:33:47.198Z,5.68
2023-01-12T02:36:42.746Z,4.07
2023-01-12T02:39:26.415Z,1.83
2023-01-12T02:42:25.203Z,3.15
2023-01-12T02:45:00.472Z,4.95
2023-01-12T02:48:23.961Z,3.65
2023-01-12T02:51:25.331Z,7.25
2023-01-12T02:53:55.306Z,2.95
2023-01-12T02:56:35.373Z,5.50
2023-01-12T02:59:11.639Z,3.30
2023-01-12T03:01:41.146Z,11.40
2023-01-12T03:04:10.902Z,39.30
2023-01-12T03:06:42.773Z,5.97
2023-01-12T03:09:10.108Z,2.35
2023-01-12T03:11:40.600Z,4.72
2023-01-12T03:14:09.769Z,14.73
2023-01-12T03:16:39.142Z,11.48
2023-01-12T03:19:09.901Z,6.05
2023-01-12T03:21:59.118Z,4.40
2023-01-12T03:24:30.713Z,14.60
2023-01-12T03:27:06.213Z,9.80
2023-01-12T03:29:41.477Z,10.93
2023-01-12T03:32:08.438Z,8.23
2023-01-12T03:34:36.465Z,8.95
2023-01-12T03:37:37.872Z,8.27
2023-01-12T03:40:15.119Z,3.97
2023-01-12T03:42:49.032Z,7.72
2023-01-12T03:45:50.956Z,3.00
2023-01-12T03:48:49.989Z,2.83
2023-01-12T03:51:29.530Z,1.92
2023-01-12T03:53:57.642Z,5.43
2023-01-12T03:56:28.668Z,2.25
2023-01-12T03:58:55.731Z,2.65
2023-01-12T04:01:22.571Z,3.42
2023-01-12T04:03:49.337Z,1.42
2023-01-12T04:06:15.978Z,2.28
2023-01-12T04:08:42.650Z,3.90
2023-01-12T04:11:29.520Z,2.70
2023-01-12T04:13:56.224Z,4.18
2023-01-12T04:16:22.924Z,6.68
2023-01-12T04:18:49.554Z,2.58
2023-01-12T04:21:34.535Z,5.15
2023-01-12T04:24:01.183Z,31.88
2023-01-12T04:26:27.874Z,18.55
2023-01-12T04:28:54.559Z,42.65
2023-01-12T04:31:21.244Z,40.08
2023-01-12T04:33:47.889Z,47.20
2023-01-12T04:36:15.510Z,20.77
2023-01-12T04:38:42.329Z,9.93
2023-01-12T04:41:09.376Z,10.35
2023-01-12T04:43:36.083Z,64.35
2023-01-12T04:46:07.951Z,32.47
2023-01-12T04:48:34.696Z,47.97
2023-01-12T04:51:02.557Z,72.55
2023-01-12T04:53:29.682Z,65.20
2023-01-12T04:55:57.119Z,328.42
2023-01-12T04:58:24.209Z,273.20
2023-01-12T05:00:50.985Z,489.40
2023-01-12T05:03:17.755Z,592.47
2023-01-12T05:05:44.473Z,392.17
2023-01-12T05:08:31.311Z,866.58
2023-01-12T05:11:00.661Z,805.58
2023-01-12T05:13:30.550Z,629.10
2023-01-12T05:15:57.339Z,627.40
2023-01-12T05:18:24.063Z,336.48
2023-01-12T05:20:50.713Z,242.85
2023-01-12T05:23:17.345Z,628.40
2023-01-12T05:25:44.032Z,1171.25
2023-01-12T05:28:10.729Z,1388.80
2023-01-12T05:30:37.368Z,888.75
2023-01-12T05:33:04.136Z,1991.00
2023-01-12T05:35:30.733Z,1427.68
2023-01-12T05:37:57.600Z,1334.80
2023-01-12T05:40:24.974Z,777.35
2023-01-12T05:43:10.388Z,184.93
2023-01-12T05:45:37.252Z,47.00
2023-01-12T05:48:04.466Z,518.47
2023-01-12T05:50:31.104Z,409.77
2023-01-12T05:52:57.789Z,169.95
2023-01-12T05:55:24.482Z,203.60
2023-01-12T05:57:51.085Z,397.15
2023-01-12T06:00:18.662Z,772.47
2023-01-12T06:02:45.284Z,1009.95
2023-01-12T06:05:11.957Z,174.40
2023-01-12T06:07:38.824Z,19.73
2023-01-12T06:10:06.130Z,40.47
2023-01-12T06:12:51.252Z,11.52
2023-01-12T06:15:17.859Z,21.70
2023-01-12T06:17:44.462Z,9.73
2023-01-12T06:20:14.940Z,5.68
2023-01-12T06:22:41.635Z,7.55
2023-01-12T06:25:08.991Z,5.15
2023-01-12T06:27:36.016Z,7.60
2023-01-12T06:30:02.654Z,9.70
2023-01-12T06:32:29.866Z,12.43
2023-01-12T06:35:01.611Z,11.50
2023-01-12T06:37:33.585Z,9.10
2023-01-12T06:40:00.311Z,5.03
2023-01-12T06:42:29.893Z,8.13
2023-01-12T06:44:57.874Z,10.05
2023-01-12T06:47:25.130Z,7.32
2023-01-12T06:49:52.226Z,9.48
2023-01-12T06:52:20.884Z,7.47
2023-01-12T06:54:47.762Z,6.72
2023-01-12T06:57:15.003Z,4.90
2023-01-12T06:59:42.147Z,4.57
2023-01-12T07:02:14.102Z,10.70
2023-01-12T07:04:41.897Z,5.05
2023-01-12T07:07:10.216Z,12.60
2023-01-12T07:09:37.311Z,7.18
2023-01-12T07:12:04.854Z,7.63
2023-01-12T07:14:31.537Z,4.95
2023-01-12T07:16:58.195Z,7.55
2023-01-12T07:19:24.941Z,3.72
2023-01-12T07:21:51.558Z,5.88
2023-01-12T07:24:18.259Z,7.35
2023-01-12T07:26:47.741Z,9.00
2023-01-12T07:29:14.350Z,9.93
2023-01-12T07:31:41.006Z,6.45
2023-01-12T07:34:07.733Z,6.82
2023-01-12T07:36:34.366Z,5.32
2023-01-12T07:39:01.327Z,9.07
2023-01-12T07:41:46.553Z,7.20
2023-01-12T07:44:13.235Z,5.35
2023-01-12T07:46:39.904Z,34.72
2023-01-12T07:49:06.536Z,69.90
2023-01-12T07:51:33.475Z,60.22
2023-01-12T07:54:00.226Z,48.88
2023-01-12T07:56:26.946Z,32.47
2023-01-12T07:58:53.638Z,20.63
2023-01-12T08:01:20.346Z,12.15
2023-01-12T08:03:47.478Z,13.25
2023-01-12T08:06:14.212Z,11.93
2023-01-12T08:08:41.415Z,14.50
2023-01-12T08:11:10.166Z,9.27
2023-01-12T08:13:37.923Z,9.80
2023-01-12T08:16:16.246Z,10.32
2023-01-12T08:19:08.061Z,12.82
2023-01-12T08:21:47.447Z,6.47
2023-01-12T08:24:18.016Z,29.33
2023-01-12T08:26:48.736Z,5.03
2023-01-12T08:29:21.020Z,4.78
2023-01-12T08:31:47.785Z,6.95
2023-01-12T08:34:14.495Z,3.22
2023-01-12T08:36:44.324Z,6.57
2023-01-12T08:39:11.477Z,13.10
2023-01-12T08:41:38.097Z,3.60
2023-01-12T08:44:10.796Z,5.07
2023-01-12T08:46:53.932Z,3.75
2023-01-12T08:49:26.969Z,4.40
2023-01-12T08:51:53.830Z,5.95
2023-01-12T08:54:21.906Z,6.53
2023-01-12T08:56:49.422Z,8.80
2023-01-12T08:59:16.526Z,7.78
2023-01-12T09:01:43.524Z,8.57
2023-01-12T09:04:10.446Z,9.23
2023-01-12T09:06:43.005Z,2.70
2023-01-12T09:11:39.344Z,3.60
2023-01-12T09:14:06.420Z,3.38
2023-01-12T09:16:33.860Z,8.63
2023-01-12T09:19:00.950Z,3.33
2023-01-12T09:21:28.865Z,5.05
2023-01-12T09:23:55.863Z,5.72
2023-01-12T09:26:33.904Z,2.10
2023-01-12T09:29:02.353Z,2.72
2023-01-12T09:31:30.734Z,3.30
2023-01-12T09:33:57.967Z,5.75
2023-01-12T09:36:27.230Z,5.50
2023-01-12T09:38:54.308Z,2.90
2023-01-12T09:41:59.483Z,5.70
2023-01-12T09:44:50.675Z,8.30
2023-01-12T09:47:44.797Z,4.32
2023-01-12T09:50:20.421Z,6.28
2023-01-12T09:53:00.032Z,4.40
2023-01-12T09:55:31.671Z,7.38
2023-01-12T09:58:37.091Z,5.50
2023-01-12T10:01:20.439Z,3.92
2023-01-12T10:03:55.637Z,8.40
2023-01-12T10:06:22.468Z,2.80
2023-01-12T10:09:00.983Z,6.65
2023-01-12T10:11:48.680Z,4.72
2023-01-12T10:15:12.129Z,4.45
2023-01-12T10:18:04.255Z,5.32
2023-01-12T10:20:38.513Z,3.63
2023-01-12T10:23:26.737Z,2.97
2023-01-12T10:26:19.659Z,4.05
2023-01-12T10:31:20.649Z,5.10
2023-01-12T10:34:10.093Z,3.80
2023-01-12T10:36:43.318Z,8.38
2023-01-12T10:39:35.122Z,3.50
2023-01-12T10:42:55.769Z,2.15
2023-01-12T10:45:24.586Z,4.65
2023-01-12T10:47:56.887Z,7.03
2023-01-12T10:50:32.771Z,2.28
2023-01-12T10:53:06.124Z,2.55
2023-01-12T10:55:39.737Z,3.63
2023-01-12T10:58:20.289Z,3.72
2023-01-12T11:00:48.809Z,4.93
2023-01-12T11:03:39.402Z,2.97
2023-01-12T11:06:28.121Z,2.47
2023-01-12T11:08:55.590Z,5.45
2023-01-12T11:11:31.226Z,5.50
2023-01-12T11:14:02.756Z,2.50
2023-01-12T11:16:44.023Z,3.40
2023-01-12T11:19:21.879Z,7.28
2023-01-12T11:21:57.302Z,5.35
2023-01-12T11:25:08.764Z,2.83
2023-01-12T11:27:47.025Z,5.35
2023-01-12T11:30:23.236Z,3.15
2023-01-12T11:33:28.513Z,4.85
2023-01-12T11:36:03.138Z,8.13
2023-01-12T11:38:43.808Z,3.33
2023-01-12T11:41:25.527Z,2.60
2023-01-12T11:44:19.287Z,5.50
2023-01-12T11:46:52.109Z,2.22
2023-01-12T11:49:34.374Z,3.95
2023-01-12T11:52:02.899Z,3.20
2023-01-12T11:54:31.759Z,3.47
2023-01-12T11:57:25.515Z,6.38
2023-01-12T12:00:34.668Z,2.90
2023-01-12T12:03:31.337Z,5.05
2023-01-12T12:06:35.381Z,2.13
2023-01-12T12:09:31.967Z,6.43
2023-01-12T12:12:55.650Z,3.72
2023-01-12T12:15:56.788Z,7.60
2023-01-12T12:19:10.072Z,2.60
2023-01-12T12:21:48.844Z,3.78
2023-01-12T12:25:07.891Z,7.18
2023-01-12T12:27:58.619Z,6.72
2023-01-12T12:31:05.320Z,4.05
2023-01-12T12:34:22.538Z,2.88
2023-01-12T12:37:34.434Z,2.63
2023-01-12T12:40:16.469Z,4.63
2023-01-12T12:43:16.329Z,7.13
2023-01-12T12:46:11.437Z,5.90
2023-01-12T12:49:01.316Z,5.25
2023-01-12T12:51:30.814Z,4.90
2023-01-12T12:53:58.581Z,6.47
2023-01-12T12:56:26.904Z,2.63
2023-01-12T12:58:55.727Z,3.38
2023-01-12T13:01:36.615Z,7.57
2023-01-12T13:04:05.542Z,1.98
2023-01-12T13:06:34.997Z,5.13
2023-01-12T13:09:23.272Z,2.83
2023-01-12T13:12:20.963Z,2.47
2023-01-12T13:15:24.602Z,5.00
2023-01-12T13:17:53.375Z,4.88
2023-01-12T13:20:50.796Z,5.90
2023-01-12T13:23:49.063Z,4.18
2023-01-12T13:26:34.998Z,4.32
2023-01-12T13:29:38.641Z,4.35
2023-01-12T13:32:23.319Z,5.00
2023-01-12T13:34:52.874Z,5.70
2023-01-12T13:37:33.196Z,5.20
2023-01-12T13:40:20.397Z,7.97
2023-01-12T13:43:07.798Z,7.20
2023-01-12T13:45:36.634Z,5.95
2023-01-12T13:48:06.384Z,5.57
2023-01-12T13:50:35.571Z,3.90
2023-01-12T13:53:04.433Z,5.30
2023-01-12T13:55:33.014Z,4.82
2023-01-12T13:58:18.358Z,6.30
2023-01-12T14:01:00.667Z,10.18
2023-01-12T14:04:34.809Z,9.93
2023-01-12T14:07:42.434Z,7.53
2023-01-12T14:10:47.439Z,5.45
2023-01-12T14:13:52.103Z,7.25
2023-01-12T14:16:37.335Z,7.47
2023-01-12T14:19:26.006Z,9.90
2023-01-12T14:22:00.057Z,9.98
2023-01-12T14:24:26.764Z,11.07
2023-01-12T14:26:53.422Z,10.77
2023-01-12T14:29:20.273Z,3.55
2023-01-12T14:31:49.860Z,4.60
2023-01-12T14:34:35.054Z,4.38
2023-01-12T14:37:07.867Z,3.28
2023-01-12T14:39:41.442Z,6.50
2023-01-12T14:42:37.595Z,7.97
2023-01-12T14:45:45.028Z,5.80
2023-01-12T14:48:29.676Z,4.45
2023-01-12T14:51:26.095Z,4.40
2023-01-12T14:54:01.076Z,5.63
2023-01-12T14:56:39.073Z,4.13
2023-01-12T14:59:19.682Z,4.93
2023-01-12T15:01:46.483Z,8.63
2023-01-12T15:04:19.837Z,5.07
2023-01-12T15:06:47.182Z,5.68
2023-01-12T15:09:27.320Z,7.50
2023-01-12T15:11:54.258Z,5.35
2023-01-12T15:14:25.122Z,5.07
2023-01-12T15:17:11.541Z,7.07
2023-01-12T15:19:56.888Z,13.68
2023-01-12T15:22:46.878Z,5.50
2023-01-12T15:25:35.080Z,6.57
2023-01-12T15:28:06.724Z,8.75
2023-01-12T15:30:37.424Z,6.37
2023-01-12T15:33:05.624Z,6.00
2023-01-12T15:35:32.719Z,6.70
2023-01-12T15:37:59.582Z,7.90
2023-01-12T15:40:27.958Z,7.72
2023-01-12T15:42:54.726Z,7.95
2023-01-12T15:45:37.655Z,9.70
2023-01-12T15:48:05.437Z,6.47
2023-01-12T15:50:33.787Z,34.40
2023-01-12T15:53:01.555Z,112.78
2023-01-12T15:55:31.382Z,93.03
2023-01-12T15:57:58.071Z,92.10
2023-01-12T16:00:24.800Z,59.72
2023-01-12T16:02:52.794Z,40.13
2023-01-12T16:05:22.332Z,29.38
2023-01-12T16:07:49.720Z,42.08
2023-01-12T16:10:17.119Z,29.30
2023-01-12T16:12:44.462Z,28.67
2023-01-12T16:15:22.768Z,25.30
2023-01-12T16:17:50.483Z,22.55
2023-01-12T16:20:19.827Z,15.30
2023-01-12T16:22:47.246Z,15.60
2023-01-12T16:25:14.752Z,18.33
2023-01-12T16:27:41.610Z,15.70
2023-01-12T16:30:12.691Z,10.73
2023-01-12T16:32:39.384Z,15.43
2023-01-12T16:35:06.049Z,14.98
2023-01-12T16:37:33.386Z,15.40
2023-01-12T16:40:00.956Z,12.75
2023-01-12T16:42:28.009Z,13.30
2023-01-12T16:44:54.679Z,14.27
2023-01-12T16:47:21.479Z,40.75
2023-01-12T16:49:50.045Z,56.20
2023-01-12T16:52:18.767Z,31.42
2023-01-12T16:54:45.681Z,22.70
2023-01-12T16:57:14.476Z,22.67
2023-01-12T16:59:41.782Z,110.93
2023-01-12T17:02:17.059Z,61.05
2023-01-12T17:04:44.929Z,19.90
2023-01-12T17:07:12.044Z,11.52
2023-01-12T17:09:39.814Z,13.00
2023-01-12T17:12:07.550Z,8.38
2023-01-12T17:14:35.069Z,9.77
2023-01-12T17:17:05.887Z,7.55
2023-01-12T17:19:36.548Z,6.50
2023-01-12T17:22:06.782Z,8.13
2023-01-12T17:24:35.582Z,7.85
2023-01-12T17:27:02.654Z,5.55
2023-01-12T17:29:29.481Z,6.22
2023-01-12T17:32:03.732Z,5.60
2023-01-12T17:34:33.484Z,6.35
2023-01-12T17:37:04.100Z,13.80
2023-01-12T17:39:31.237Z,9.13
2023-01-12T17:42:16.287Z,7.60
2023-01-12T17:44:42.963Z,7.20
2023-01-12T17:47:10.184Z,5.63
2023-01-12T17:49:37.112Z,6.60
2023-01-12T17:52:04.025Z,7.32
2023-01-12T17:54:30.687Z,5.25
2023-01-12T17:56:57.378Z,4.55
2023-01-12T17:59:24.332Z,6.10
2023-01-12T18:01:51.414Z,7.38
2023-01-12T18:04:18.671Z,4.30
2023-01-12T18:06:46.211Z,3.05
2023-01-12T18:09:13.810Z,2.97
2023-01-12T18:11:40.888Z,2.60
2023-01-12T18:14:08.017Z,3.75
2023-01-12T18:16:35.179Z,4.13
2023-01-12T18:19:06.818Z,3.80
2023-01-12T18:21:34.236Z,1.77
2023-01-12T18:24:01.689Z,1.60
2023-01-12T18:26:30.896Z,3.35
2023-01-12T18:28:58.690Z,2.40
2023-01-12T18:31:33.625Z,1.35
2023-01-12T18:34:05.278Z,2.15
2023-01-12T18:36:39.971Z,2.50
2023-01-12T18:39:09.011Z,2.60
2023-01-12T18:41:55.359Z,4.35
2023-01-12T18:44:23.168Z,7.10
2023-01-12T18:47:08.331Z,3.00
2023-01-12T18:49:36.302Z,5.80
2023-01-12T18:52:22.855Z,4.18
2023-01-12T18:54:53.284Z,4.00
2023-01-12T18:57:23.186Z,3.75
2023-01-12T18:59:56.547Z,5.57
2023-01-12T19:02:23.318Z,2.75
2023-01-12T19:04:50.461Z,5.57
2023-01-12T19:07:40.392Z,2.60
2023-01-12T19:10:07.536Z,6.28
2023-01-12T19:12:34.166Z,3.38
2023-01-12T19:15:19.670Z,3.50
2023-01-12T19:17:46.439Z,6.85
2023-01-12T19:20:17.324Z,3.47
2023-01-12T19:23:02.533Z,4.85
2023-01-12T19:25:47.971Z,4.78
2023-01-12T19:28:39.663Z,3.88
2023-01-12T19:31:11.903Z,4.82
2023-01-12T19:33:39.251Z,1.85
2023-01-12T19:36:09.401Z,2.17
2023-01-12T19:38:36.452Z,2.97
2023-01-12T19:41:34.343Z,4.38
2023-01-12T19:44:05.204Z,2.85
2023-01-12T19:46:33.153Z,3.88
2023-01-12T19:49:00.098Z,2.20
2023-01-12T19:51:26.728Z,2.05
2023-01-12T19:53:53.371Z,6.50
2023-01-12T19:56:20.044Z,2.22
2023-01-12T19:58:46.689Z,3.88
2023-01-12T20:01:23.341Z,3.45
2023-01-12T20:03:50.775Z,1.95
2023-01-12T20:06:17.606Z,3.97
2023-01-12T20:08:44.332Z,2.20
2023-01-12T20:11:10.987Z,1.88
2023-01-12T20:13:37.631Z,2.28
2023-01-12T20:16:09.263Z,3.28
2023-01-12T20:18:36.254Z,2.80
2023-01-12T20:21:08.366Z,2.72
2023-01-12T20:23:35.066Z,1.90
2023-01-12T20:26:04.832Z,3.38
2023-01-12T20:28:31.504Z,6.00
2023-01-12T20:30:59.474Z,7.93
2023-01-12T20:33:26.353Z,5.32
2023-01-12T20:35:53.638Z,11.13
2023-01-12T20:38:22.659Z,6.78
2023-01-12T20:40:49.675Z,3.67
2023-01-12T20:43:16.492Z,11.40
2023-01-12T20:45:44.216Z,7.50
2023-01-12T20:48:13.629Z,3.13
2023-01-12T20:50:47.386Z,6.80
2023-01-12T20:53:15.595Z,3.25
2023-01-12T20:55:49.126Z,5.18
2023-01-12T20:58:16.099Z,4.03
2023-01-12T21:00:43.268Z,3.28
2023-01-12T21:03:10.106Z,5.53
2023-01-12T21:05:41.959Z,1.83
2023-01-12T21:08:08.820Z,2.25
2023-01-12T21:10:39.423Z,2.17
2023-01-12T21:13:07.110Z,1.65
2023-01-12T21:15:33.916Z,2.15
2023-01-12T21:18:00.524Z,1.88
2023-01-12T21:20:27.182Z,2.17
2023-01-12T21:22:53.989Z,3.72
2023-01-12T21:25:20.650Z,2.67
2023-01-12T21:27:47.298Z,1.00
2023-01-12T21:30:14.115Z,1.52
2023-01-12T21:32:43.423Z,2.10
2023-01-12T21:35:10.207Z,4.53
2023-01-12T21:37:36.873Z,1.15
2023-01-12T21:40:04.002Z,0.85
2023-01-12T21:42:49.437Z,1.70
2023-01-12T21:45:16.094Z,1.65
2023-01-12T21:47:45.856Z,3.30
2023-01-12T21:50:13.067Z,1.65
2023-01-12T21:52:41.474Z,2.05
2023-01-12T21:55:11.292Z,1.00
2023-01-12T21:57:38.106Z,1.23
2023-01-12T22:00:05.873Z,3.92
2023-01-12T22:02:34.279Z,1.08
2023-01-12T22:05:00.932Z,1.05
2023-01-12T22:07:27.963Z,2.80
2023-01-12T22:09:55.061Z,0.82
2023-01-12T22:12:21.748Z,2.08
2023-01-12T22:14:48.353Z,0.73
2023-01-12T22:17:14.993Z,0.68
2023-01-12T22:19:41.644Z,0.70
2023-01-12T22:22:08.255Z,0.60
2023-01-12T22:24:34.855Z,4.65
2023-01-12T22:27:03.421Z,1.13
2023-01-12T22:29:30.066Z,1.30
2023-01-12T22:31:56.700Z,4.00
2023-01-12T22:34:25.059Z,1.08
2023-01-12T22:36:51.668Z,3.67
2023-01-12T22:39:18.298Z,1.33
2023-01-12T22:41:44.950Z,2.72
2023-01-12T22:44:11.720Z,2.65
2023-01-12T22:46:38.523Z,1.35
2023-01-12T22:49:05.483Z,2.20
2023-01-12T22:51:32.239Z,1.83
2023-01-12T22:53:59.041Z,3.83
2023-01-12T22:56:26.237Z,1.13
2023-01-12T22:58:54.735Z,1.13
2023-01-12T23:01:22.734Z,1.30
2023-01-12T23:03:54.241Z,1.23
2023-01-12T23:06:22.344Z,0.90
2023-01-12T23:08:49.630Z,3.40
2023-01-12T23:11:24.318Z,3.72
2023-01-12T23:13:51.759Z,1.33
2023-01-12T23:16:19.654Z,1.85
2023-01-12T23:18:47.412Z,1.83
2023-01-12T23:21:16.929Z,2.17
2023-01-12T23:23:52.454Z,4.20
2023-01-12T23:26:22.672Z,0.60
2023-01-12T23:28:52.123Z,1.05
2023-01-12T23:31:24.484Z,2.95
2023-01-12T23:33:51.733Z,0.90
2023-01-12T23:36:21.222Z,1.25
2023-01-12T23:38:51.866Z,4.03
2023-01-12T23:41:23.380Z,1.42
2023-01-12T23:43:51.831Z,0.93
2023-01-12T23:46:23.519Z,1.23
2023-01-12T23:48:51.457Z,2.07
2023-01-12T23:51:18.108Z,1.17
2023-01-12T23:53:47.497Z,2.92
2023-01-12T23:56:15.816Z,1.55
2023-01-12T23:58:43.410Z,0.60
